Etusivu
METAR-TAF:

METAR-TAF

Lentoasemat :

Sfax, Tunisia

Leveyspiiri: 34-43N, Pituuspiiri: 010-41E, korkeus merenpinnasta: 21 m

Tämänhetkinen sää

Tämä raportti tehtiin 20 minuuttia sitten, kello 14.00 UTC
Tuuli 14 kn etelästä/lounaasta
Lämpötila 21°C
Kosteus 40%
Ilmanpaine 1005 hPa
Näkyvyys: 8000 m
Muutamia pilviä 2000 ft:n korkeudessa

METAR: DTTX 281400Z 20014KT 8000 FEW020 21/07 Q1005

Aika: 15:20 (14:20 UTC)

Sääennuste

Tämä raportti tehtiin 3 tuntia ja 20 minuuttia sitten, kello 11.00 UTC
Ennuste voimassa 28. päivästä klo 12 UTC - 29. päivään klo 12 UTC
Tuuli 18 kn etelästä/kaakosta
Näkyvyys: 7000 m
Hajanaisia pilviä 2000 ft:n korkeudessa
Tulossa
28. päivästä klo 12 UTC - 28. päivään klo 14 UTC
Tuuli 18 kn etelästä/lounaasta
Ajoittain
28. päivästä klo 12 UTC - 28. päivään klo 24 UTC
Tuuli 21 kn etelästä/lounaasta puuskistuen 33 kn:hen

TAF: DTTX 281100Z 2812/2912 15018KT 7000 SCT020 BECMG 2812/2814 21018KT TEMPO 2812/2824 20021G33KT

Säähavainnot ja -ennusteet yli 4000 lentoasemalta (METAR- ja TAF-raportit).

Käytössä olevat sääasemat on merkitty karttaan keltaisilla ja punaisilla pisteillä.

Aseta hiiri pisteen päälle nähdäksesi sääaseman nimen.

Klikkaa sitten nähdäksesi säähavainnot ja -ennusteet.

Kartan vaihtaminen: klikkaa mustalla rastilla varustettuja vihreitä pisteitä, niin voit zoomata sisään; viivalla varustettua vihreää pistettä, niin voit zoomata ulos tai vihreitä nuolia, niin pääset viereisille kartoille.


METAR-TAF: